sensor_id;sensor_type;location;lat;lon;timestamp;P1;durP1;ratioP1;P2;durP2;ratioP2
6197;SDS011;3132;42.622;23.328;2022-12-19T00:01:53;27.57;;;19.07;;
6197;SDS011;3132;42.622;23.328;2022-12-19T00:04:18;26.23;;;18.80;;
6197;SDS011;3132;42.622;23.328;2022-12-19T00:06:45;23.47;;;18.43;;
6197;SDS011;3132;42.622;23.328;2022-12-19T00:09:11;18.57;;;15.93;;
6197;SDS011;3132;42.622;23.328;2022-12-19T00:11:37;24.77;;;18.70;;
6197;SDS011;3132;42.622;23.328;2022-12-19T00:14:03;27.07;;;18.20;;
6197;SDS011;3132;42.622;23.328;2022-12-19T00:16:29;22.17;;;18.47;;
6197;SDS011;3132;42.622;23.328;2022-12-19T00:18:55;24.43;;;19.23;;
6197;SDS011;3132;42.622;23.328;2022-12-19T00:21:23;20.93;;;17.20;;
6197;SDS011;3132;42.622;23.328;2022-12-19T00:23:51;22.57;;;18.53;;
6197;SDS011;3132;42.622;23.328;2022-12-19T00:26:21;23.07;;;18.43;;
6197;SDS011;3132;42.622;23.328;2022-12-19T00:28:57;25.07;;;18.23;;
6197;SDS011;3132;42.622;23.328;2022-12-19T00:31:24;24.90;;;17.03;;
6197;SDS011;3132;42.622;23.328;2022-12-19T00:33:50;21.97;;;18.50;;
6197;SDS011;3132;42.622;23.328;2022-12-19T00:36:26;25.43;;;19.63;;
6197;SDS011;3132;42.622;23.328;2022-12-19T00:38:57;24.67;;;18.50;;
6197;SDS011;3132;42.622;23.328;2022-12-19T00:41:33;25.07;;;17.67;;
6197;SDS011;3132;42.622;23.328;2022-12-19T00:44:00;23.27;;;19.53;;
6197;SDS011;3132;42.622;23.328;2022-12-19T00:46:28;20.00;;;17.90;;
6197;SDS011;3132;42.622;23.328;2022-12-19T00:48:55;26.90;;;19.60;;
6197;SDS011;3132;42.622;23.328;2022-12-19T00:51:22;25.90;;;18.17;;
6197;SDS011;3132;42.622;23.328;2022-12-19T00:53:50;21.73;;;17.53;;
6197;SDS011;3132;42.622;23.328;2022-12-19T00:56:21;25.07;;;19.03;;
6197;SDS011;3132;42.622;23.328;2022-12-19T00:58:52;24.47;;;18.47;;
6197;SDS011;3132;42.622;23.328;2022-12-19T01:01:19;24.50;;;18.83;;
6197;SDS011;3132;42.622;23.328;2022-12-19T01:03:45;25.27;;;19.17;;
6197;SDS011;3132;42.622;23.328;2022-12-19T01:06:11;29.00;;;19.30;;
6197;SDS011;3132;42.622;23.328;2022-12-19T01:08:37;28.30;;;20.13;;
6197;SDS011;3132;42.622;23.328;2022-12-19T01:11:03;25.57;;;19.03;;
6197;SDS011;3132;42.622;23.328;2022-12-19T01:13:29;25.30;;;19.37;;
6197;SDS011;3132;42.622;23.328;2022-12-19T01:16:03;23.77;;;18.60;;
6197;SDS011;3132;42.622;23.328;2022-12-19T01:18:30;24.97;;;18.47;;
6197;SDS011;3132;42.622;23.328;2022-12-19T01:20:58;24.03;;;19.57;;
6197;SDS011;3132;42.622;23.328;2022-12-19T01:23:24;27.63;;;18.37;;
6197;SDS011;3132;42.622;23.328;2022-12-19T01:25:53;25.73;;;17.77;;
6197;SDS011;3132;42.622;23.328;2022-12-19T01:28:19;23.17;;;17.67;;
6197;SDS011;3132;42.622;23.328;2022-12-19T01:30:45;23.73;;;18.00;;
6197;SDS011;3132;42.622;23.328;2022-12-19T01:33:11;24.23;;;17.87;;
6197;SDS011;3132;42.622;23.328;2022-12-19T01:35:38;21.33;;;17.47;;
6197;SDS011;3132;42.622;23.328;2022-12-19T01:38:05;25.03;;;19.40;;
6197;SDS011;3132;42.622;23.328;2022-12-19T01:40:31;20.87;;;17.10;;
6197;SDS011;3132;42.622;23.328;2022-12-19T01:42:56;24.53;;;17.53;;
6197;SDS011;3132;42.622;23.328;2022-12-19T01:45:23;23.37;;;18.40;;
6197;SDS011;3132;42.622;23.328;2022-12-19T01:47:53;28.33;;;17.80;;
6197;SDS011;3132;42.622;23.328;2022-12-19T01:52:56;20.73;;;18.07;;
6197;SDS011;3132;42.622;23.328;2022-12-19T01:55:23;23.07;;;18.93;;
6197;SDS011;3132;42.622;23.328;2022-12-19T01:57:49;26.20;;;20.10;;
6197;SDS011;3132;42.622;23.328;2022-12-19T02:00:15;23.43;;;18.37;;
6197;SDS011;3132;42.622;23.328;2022-12-19T02:02:45;22.07;;;17.80;;
6197;SDS011;3132;42.622;23.328;2022-12-19T02:05:17;20.33;;;16.23;;
6197;SDS011;3132;42.622;23.328;2022-12-19T02:07:42;23.70;;;17.67;;
6197;SDS011;3132;42.622;23.328;2022-12-19T02:10:08;23.43;;;18.27;;
6197;SDS011;3132;42.622;23.328;2022-12-19T02:12:35;20.93;;;17.60;;
6197;SDS011;3132;42.622;23.328;2022-12-19T02:15:04;25.00;;;18.93;;
6197;SDS011;3132;42.622;23.328;2022-12-19T02:25:47;24.83;;;18.37;;
6197;SDS011;3132;42.622;23.328;2022-12-19T02:29:19;23.23;;;17.33;;
6197;SDS011;3132;42.622;23.328;2022-12-19T02:31:27;21.67;;;18.57;;
6197;SDS011;3132;42.622;23.328;2022-12-19T02:36:46;23.57;;;18.73;;
6197;SDS011;3132;42.622;23.328;2022-12-19T02:41:49;26.50;;;18.70;;
6197;SDS011;3132;42.622;23.328;2022-12-19T02:44:20;22.63;;;17.80;;
6197;SDS011;3132;42.622;23.328;2022-12-19T02:46:50;28.53;;;19.10;;
6197;SDS011;3132;42.622;23.328;2022-12-19T02:49:17;23.90;;;17.90;;
6197;SDS011;3132;42.622;23.328;2022-12-19T02:51:42;26.43;;;18.40;;
6197;SDS011;3132;42.622;23.328;2022-12-19T02:54:07;25.97;;;17.70;;
6197;SDS011;3132;42.622;23.328;2022-12-19T02:59:27;25.27;;;19.27;;
6197;SDS011;3132;42.622;23.328;2022-12-19T03:02:00;21.37;;;17.47;;
6197;SDS011;3132;42.622;23.328;2022-12-19T03:04:38;22.00;;;18.03;;
6197;SDS011;3132;42.622;23.328;2022-12-19T03:12:54;18.47;;;16.53;;
6197;SDS011;3132;42.622;23.328;2022-12-19T03:15:22;23.50;;;17.93;;
6197;SDS011;3132;42.622;23.328;2022-12-19T03:17:48;23.90;;;16.77;;
6197;SDS011;3132;42.622;23.328;2022-12-19T03:22:49;26.20;;;18.77;;
6197;SDS011;3132;42.622;23.328;2022-12-19T03:25:15;20.60;;;17.40;;
6197;SDS011;3132;42.622;23.328;2022-12-19T03:27:42;21.87;;;17.87;;
6197;SDS011;3132;42.622;23.328;2022-12-19T03:30:11;21.40;;;17.80;;
6197;SDS011;3132;42.622;23.328;2022-12-19T03:32:38;23.50;;;18.60;;
6197;SDS011;3132;42.622;23.328;2022-12-19T03:35:21;24.73;;;18.63;;
6197;SDS011;3132;42.622;23.328;2022-12-19T03:37:51;21.60;;;16.87;;
6197;SDS011;3132;42.622;23.328;2022-12-19T03:40:23;21.60;;;18.77;;
6197;SDS011;3132;42.622;23.328;2022-12-19T03:42:51;23.33;;;18.07;;
6197;SDS011;3132;42.622;23.328;2022-12-19T03:48:10;22.43;;;16.10;;
6197;SDS011;3132;42.622;23.328;2022-12-19T03:53:44;22.23;;;17.07;;
6197;SDS011;3132;42.622;23.328;2022-12-19T03:56:44;24.87;;;19.13;;
6197;SDS011;3132;42.622;23.328;2022-12-19T03:59:26;28.70;;;19.60;;
6197;SDS011;3132;42.622;23.328;2022-12-19T04:01:58;23.87;;;20.17;;
6197;SDS011;3132;42.622;23.328;2022-12-19T04:04:25;25.20;;;18.23;;
6197;SDS011;3132;42.622;23.328;2022-12-19T04:06:52;23.77;;;19.13;;
6197;SDS011;3132;42.622;23.328;2022-12-19T04:09:19;23.03;;;18.80;;
6197;SDS011;3132;42.622;23.328;2022-12-19T04:11:52;25.33;;;18.53;;
6197;SDS011;3132;42.622;23.328;2022-12-19T04:14:27;24.63;;;18.27;;
6197;SDS011;3132;42.622;23.328;2022-12-19T04:22:36;23.87;;;18.03;;
6197;SDS011;3132;42.622;23.328;2022-12-19T04:25:05;23.30;;;17.33;;
6197;SDS011;3132;42.622;23.328;2022-12-19T04:27:34;28.10;;;19.83;;
6197;SDS011;3132;42.622;23.328;2022-12-19T04:30:02;33.43;;;21.13;;
6197;SDS011;3132;42.622;23.328;2022-12-19T04:32:32;23.60;;;18.57;;
6197;SDS011;3132;42.622;23.328;2022-12-19T04:34:59;24.43;;;19.70;;
6197;SDS011;3132;42.622;23.328;2022-12-19T04:37:25;23.30;;;18.57;;
6197;SDS011;3132;42.622;23.328;2022-12-19T04:39:51;24.40;;;18.70;;
6197;SDS011;3132;42.622;23.328;2022-12-19T04:42:17;24.07;;;19.37;;
6197;SDS011;3132;42.622;23.328;2022-12-19T04:44:42;23.50;;;18.93;;
6197;SDS011;3132;42.622;23.328;2022-12-19T04:47:07;24.90;;;19.47;;
6197;SDS011;3132;42.622;23.328;2022-12-19T04:49:33;23.53;;;18.23;;
6197;SDS011;3132;42.622;23.328;2022-12-19T04:51:58;23.67;;;18.33;;
6197;SDS011;3132;42.622;23.328;2022-12-19T04:54:23;23.87;;;17.33;;
6197;SDS011;3132;42.622;23.328;2022-12-19T04:56:49;20.43;;;17.77;;
6197;SDS011;3132;42.622;23.328;2022-12-19T04:59:14;27.07;;;17.90;;
6197;SDS011;3132;42.622;23.328;2022-12-19T05:01:40;23.33;;;19.37;;
6197;SDS011;3132;42.622;23.328;2022-12-19T05:04:05;24.30;;;18.70;;
6197;SDS011;3132;42.622;23.328;2022-12-19T05:06:30;20.23;;;17.77;;
6197;SDS011;3132;42.622;23.328;2022-12-19T05:08:56;26.17;;;18.90;;
6197;SDS011;3132;42.622;23.328;2022-12-19T05:11:21;23.80;;;19.30;;
6197;SDS011;3132;42.622;23.328;2022-12-19T05:13:46;25.73;;;19.27;;
6197;SDS011;3132;42.622;23.328;2022-12-19T05:16:13;25.83;;;19.43;;
6197;SDS011;3132;42.622;23.328;2022-12-19T05:18:39;38.10;;;19.97;;
6197;SDS011;3132;42.622;23.328;2022-12-19T05:21:05;26.53;;;19.60;;
6197;SDS011;3132;42.622;23.328;2022-12-19T05:23:31;22.53;;;19.93;;
6197;SDS011;3132;42.622;23.328;2022-12-19T05:25:57;25.60;;;18.53;;
6197;SDS011;3132;42.622;23.328;2022-12-19T05:28:23;28.47;;;18.30;;
6197;SDS011;3132;42.622;23.328;2022-12-19T05:30:48;25.73;;;19.23;;
6197;SDS011;3132;42.622;23.328;2022-12-19T05:33:13;25.07;;;18.47;;
6197;SDS011;3132;42.622;23.328;2022-12-19T05:35:39;25.63;;;19.17;;
6197;SDS011;3132;42.622;23.328;2022-12-19T05:38:04;25.87;;;18.67;;
6197;SDS011;3132;42.622;23.328;2022-12-19T05:40:30;28.20;;;20.17;;
6197;SDS011;3132;42.622;23.328;2022-12-19T05:42:55;23.80;;;18.57;;
6197;SDS011;3132;42.622;23.328;2022-12-19T05:45:21;25.27;;;18.30;;
6197;SDS011;3132;42.622;23.328;2022-12-19T05:47:47;24.03;;;18.17;;
6197;SDS011;3132;42.622;23.328;2022-12-19T05:50:15;25.80;;;18.77;;
6197;SDS011;3132;42.622;23.328;2022-12-19T05:52:41;23.67;;;18.83;;
6197;SDS011;3132;42.622;23.328;2022-12-19T05:55:07;27.97;;;19.63;;
6197;SDS011;3132;42.622;23.328;2022-12-19T05:57:33;29.17;;;20.67;;
6197;SDS011;3132;42.622;23.328;2022-12-19T05:59:59;24.93;;;20.00;;
6197;SDS011;3132;42.622;23.328;2022-12-19T06:02:25;29.23;;;20.40;;
6197;SDS011;3132;42.622;23.328;2022-12-19T06:04:50;24.57;;;18.97;;
6197;SDS011;3132;42.622;23.328;2022-12-19T06:07:16;24.87;;;18.03;;
6197;SDS011;3132;42.622;23.328;2022-12-19T06:09:42;24.63;;;19.13;;
6197;SDS011;3132;42.622;23.328;2022-12-19T06:12:07;24.67;;;19.57;;
6197;SDS011;3132;42.622;23.328;2022-12-19T06:14:33;27.40;;;19.83;;
6197;SDS011;3132;42.622;23.328;2022-12-19T06:16:58;26.23;;;19.27;;
6197;SDS011;3132;42.622;23.328;2022-12-19T06:19:23;25.80;;;18.47;;
6197;SDS011;3132;42.622;23.328;2022-12-19T06:21:49;28.17;;;19.83;;
6197;SDS011;3132;42.622;23.328;2022-12-19T06:24:16;25.53;;;20.00;;
6197;SDS011;3132;42.622;23.328;2022-12-19T06:26:41;26.50;;;18.43;;
6197;SDS011;3132;42.622;23.328;2022-12-19T06:29:07;28.43;;;20.13;;
6197;SDS011;3132;42.622;23.328;2022-12-19T06:31:32;25.77;;;19.30;;
6197;SDS011;3132;42.622;23.328;2022-12-19T06:33:58;26.93;;;20.13;;
6197;SDS011;3132;42.622;23.328;2022-12-19T06:36:24;31.60;;;20.67;;
6197;SDS011;3132;42.622;23.328;2022-12-19T06:38:52;28.20;;;19.80;;
6197;SDS011;3132;42.622;23.328;2022-12-19T06:41:18;33.03;;;21.17;;
6197;SDS011;3132;42.622;23.328;2022-12-19T06:44:04;30.93;;;20.73;;
6197;SDS011;3132;42.622;23.328;2022-12-19T06:46:31;26.53;;;20.57;;
6197;SDS011;3132;42.622;23.328;2022-12-19T06:48:57;32.40;;;22.03;;
6197;SDS011;3132;42.622;23.328;2022-12-19T06:51:23;34.07;;;21.97;;
6197;SDS011;3132;42.622;23.328;2022-12-19T06:53:48;39.33;;;24.17;;
6197;SDS011;3132;42.622;23.328;2022-12-19T06:56:14;32.70;;;23.10;;
6197;SDS011;3132;42.622;23.328;2022-12-19T06:58:41;30.30;;;22.27;;
6197;SDS011;3132;42.622;23.328;2022-12-19T07:01:07;30.53;;;21.30;;
6197;SDS011;3132;42.622;23.328;2022-12-19T07:03:55;35.00;;;22.63;;
6197;SDS011;3132;42.622;23.328;2022-12-19T07:06:21;36.40;;;22.33;;
6197;SDS011;3132;42.622;23.328;2022-12-19T07:08:47;29.60;;;21.27;;
6197;SDS011;3132;42.622;23.328;2022-12-19T07:11:12;30.13;;;19.70;;
6197;SDS011;3132;42.622;23.328;2022-12-19T07:13:38;29.10;;;21.07;;
6197;SDS011;3132;42.622;23.328;2022-12-19T07:16:03;27.10;;;20.90;;
6197;SDS011;3132;42.622;23.328;2022-12-19T07:18:31;33.53;;;21.20;;
6197;SDS011;3132;42.622;23.328;2022-12-19T07:21:03;27.97;;;19.13;;
6197;SDS011;3132;42.622;23.328;2022-12-19T07:23:29;32.10;;;20.30;;
6197;SDS011;3132;42.622;23.328;2022-12-19T07:25:55;30.00;;;21.13;;
6197;SDS011;3132;42.622;23.328;2022-12-19T07:28:21;26.50;;;20.83;;
6197;SDS011;3132;42.622;23.328;2022-12-19T07:30:46;27.67;;;20.50;;
6197;SDS011;3132;42.622;23.328;2022-12-19T07:33:12;30.23;;;22.47;;
6197;SDS011;3132;42.622;23.328;2022-12-19T07:35:37;35.47;;;21.60;;
6197;SDS011;3132;42.622;23.328;2022-12-19T07:38:04;28.30;;;21.80;;
6197;SDS011;3132;42.622;23.328;2022-12-19T07:40:30;29.60;;;21.23;;
6197;SDS011;3132;42.622;23.328;2022-12-19T07:42:59;33.10;;;22.60;;
6197;SDS011;3132;42.622;23.328;2022-12-19T07:45:26;31.03;;;22.17;;
6197;SDS011;3132;42.622;23.328;2022-12-19T07:47:51;29.23;;;22.33;;
6197;SDS011;3132;42.622;23.328;2022-12-19T07:50:17;30.30;;;20.80;;
6197;SDS011;3132;42.622;23.328;2022-12-19T07:52:42;26.17;;;20.20;;
6197;SDS011;3132;42.622;23.328;2022-12-19T07:55:07;30.23;;;21.23;;
6197;SDS011;3132;42.622;23.328;2022-12-19T07:57:33;31.87;;;21.70;;
6197;SDS011;3132;42.622;23.328;2022-12-19T07:59:58;28.30;;;19.93;;
6197;SDS011;3132;42.622;23.328;2022-12-19T08:02:24;29.33;;;21.67;;
6197;SDS011;3132;42.622;23.328;2022-12-19T08:04:49;34.67;;;21.83;;
6197;SDS011;3132;42.622;23.328;2022-12-19T08:07:15;26.00;;;21.27;;
6197;SDS011;3132;42.622;23.328;2022-12-19T08:09:40;34.33;;;22.30;;
6197;SDS011;3132;42.622;23.328;2022-12-19T08:12:05;28.03;;;20.57;;
6197;SDS011;3132;42.622;23.328;2022-12-19T08:14:31;28.47;;;21.20;;
6197;SDS011;3132;42.622;23.328;2022-12-19T08:16:56;26.53;;;20.43;;
6197;SDS011;3132;42.622;23.328;2022-12-19T08:19:22;29.47;;;21.83;;
6197;SDS011;3132;42.622;23.328;2022-12-19T08:21:47;27.73;;;21.00;;
6197;SDS011;3132;42.622;23.328;2022-12-19T08:24:13;27.27;;;20.90;;
6197;SDS011;3132;42.622;23.328;2022-12-19T08:26:38;32.17;;;20.37;;
6197;SDS011;3132;42.622;23.328;2022-12-19T08:29:04;30.33;;;22.20;;
6197;SDS011;3132;42.622;23.328;2022-12-19T08:31:30;27.53;;;21.00;;
6197;SDS011;3132;42.622;23.328;2022-12-19T08:33:55;34.67;;;23.33;;
6197;SDS011;3132;42.622;23.328;2022-12-19T08:36:21;34.17;;;23.03;;
6197;SDS011;3132;42.622;23.328;2022-12-19T08:38:47;32.00;;;20.87;;
6197;SDS011;3132;42.622;23.328;2022-12-19T08:41:14;30.03;;;22.73;;
6197;SDS011;3132;42.622;23.328;2022-12-19T08:43:40;38.33;;;23.07;;
6197;SDS011;3132;42.622;23.328;2022-12-19T08:46:06;30.53;;;21.43;;
6197;SDS011;3132;42.622;23.328;2022-12-19T08:48:33;33.83;;;21.33;;
6197;SDS011;3132;42.622;23.328;2022-12-19T08:51:01;31.87;;;22.10;;
6197;SDS011;3132;42.622;23.328;2022-12-19T08:53:28;35.67;;;22.60;;
6197;SDS011;3132;42.622;23.328;2022-12-19T08:55:56;31.03;;;20.80;;
6197;SDS011;3132;42.622;23.328;2022-12-19T08:58:23;36.00;;;20.80;;
6197;SDS011;3132;42.622;23.328;2022-12-19T09:00:49;31.97;;;21.47;;
6197;SDS011;3132;42.622;23.328;2022-12-19T09:03:16;32.37;;;22.73;;
6197;SDS011;3132;42.622;23.328;2022-12-19T09:05:42;31.00;;;21.97;;
6197;SDS011;3132;42.622;23.328;2022-12-19T09:08:07;31.67;;;20.50;;
6197;SDS011;3132;42.622;23.328;2022-12-19T09:10:35;34.00;;;20.07;;
6197;SDS011;3132;42.622;23.328;2022-12-19T09:13:01;33.00;;;22.83;;
6197;SDS011;3132;42.622;23.328;2022-12-19T09:15:27;34.47;;;24.07;;
6197;SDS011;3132;42.622;23.328;2022-12-19T09:17:52;33.50;;;23.13;;
6197;SDS011;3132;42.622;23.328;2022-12-19T09:20:17;41.43;;;24.07;;
6197;SDS011;3132;42.622;23.328;2022-12-19T09:22:43;32.90;;;22.80;;
6197;SDS011;3132;42.622;23.328;2022-12-19T09:25:08;39.73;;;23.83;;
6197;SDS011;3132;42.622;23.328;2022-12-19T09:27:34;33.27;;;23.00;;
6197;SDS011;3132;42.622;23.328;2022-12-19T09:30:00;35.83;;;23.67;;
6197;SDS011;3132;42.622;23.328;2022-12-19T09:32:25;34.53;;;23.67;;
6197;SDS011;3132;42.622;23.328;2022-12-19T09:34:51;33.97;;;22.77;;
6197;SDS011;3132;42.622;23.328;2022-12-19T09:37:16;37.03;;;23.07;;
6197;SDS011;3132;42.622;23.328;2022-12-19T09:39:43;33.90;;;21.67;;
6197;SDS011;3132;42.622;23.328;2022-12-19T09:44:55;34.97;;;22.80;;
6197;SDS011;3132;42.622;23.328;2022-12-19T09:47:35;32.50;;;21.63;;
6197;SDS011;3132;42.622;23.328;2022-12-19T09:50:03;28.03;;;20.90;;
6197;SDS011;3132;42.622;23.328;2022-12-19T09:52:46;33.83;;;20.57;;
6197;SDS011;3132;42.622;23.328;2022-12-19T09:55:21;32.23;;;21.90;;
6197;SDS011;3132;42.622;23.328;2022-12-19T10:00:20;25.67;;;20.70;;
6197;SDS011;3132;42.622;23.328;2022-12-19T10:02:55;26.50;;;19.83;;
6197;SDS011;3132;42.622;23.328;2022-12-19T10:08:38;29.37;;;20.30;;
6197;SDS011;3132;42.622;23.328;2022-12-19T10:11:20;26.17;;;20.80;;
6197;SDS011;3132;42.622;23.328;2022-12-19T10:25:28;25.80;;;17.80;;
6197;SDS011;3132;42.622;23.328;2022-12-19T10:31:21;24.53;;;18.93;;
6197;SDS011;3132;42.622;23.328;2022-12-19T10:36:26;22.33;;;18.37;;
6197;SDS011;3132;42.622;23.328;2022-12-19T10:38:57;20.53;;;17.03;;
6197;SDS011;3132;42.622;23.328;2022-12-19T10:41:37;21.13;;;17.97;;
6197;SDS011;3132;42.622;23.328;2022-12-19T10:44:08;29.47;;;19.67;;
6197;SDS011;3132;42.622;23.328;2022-12-19T10:46:36;29.57;;;20.17;;
6197;SDS011;3132;42.622;23.328;2022-12-19T10:54:38;29.57;;;21.77;;
6197;SDS011;3132;42.622;23.328;2022-12-19T11:00:18;30.10;;;20.83;;
6197;SDS011;3132;42.622;23.328;2022-12-19T11:02:47;29.37;;;20.13;;
6197;SDS011;3132;42.622;23.328;2022-12-19T11:05:28;30.07;;;22.03;;
6197;SDS011;3132;42.622;23.328;2022-12-19T11:10:47;30.30;;;20.40;;
6197;SDS011;3132;42.622;23.328;2022-12-19T11:13:27;28.73;;;20.83;;
6197;SDS011;3132;42.622;23.328;2022-12-19T11:16:03;34.10;;;22.20;;
6197;SDS011;3132;42.622;23.328;2022-12-19T11:29:15;23.53;;;20.63;;
6197;SDS011;3132;42.622;23.328;2022-12-19T11:31:55;29.67;;;21.37;;
6197;SDS011;3132;42.622;23.328;2022-12-19T11:34:29;27.00;;;20.00;;
6197;SDS011;3132;42.622;23.328;2022-12-19T11:37:06;30.17;;;19.23;;
6197;SDS011;3132;42.622;23.328;2022-12-19T11:39:46;26.23;;;18.77;;
6197;SDS011;3132;42.622;23.328;2022-12-19T11:47:54;21.47;;;17.23;;
6197;SDS011;3132;42.622;23.328;2022-12-19T11:50:28;26.30;;;19.13;;
6197;SDS011;3132;42.622;23.328;2022-12-19T11:56:08;25.63;;;19.30;;
6197;SDS011;3132;42.622;23.328;2022-12-19T11:58:37;26.93;;;18.70;;
6197;SDS011;3132;42.622;23.328;2022-12-19T12:04:00;27.60;;;18.50;;
6197;SDS011;3132;42.622;23.328;2022-12-19T12:06:32;28.33;;;18.77;;
6197;SDS011;3132;42.622;23.328;2022-12-19T12:11:37;24.13;;;18.97;;
6197;SDS011;3132;42.622;23.328;2022-12-19T12:14:19;23.80;;;19.03;;
6197;SDS011;3132;42.622;23.328;2022-12-19T12:25:27;23.00;;;18.10;;
6197;SDS011;3132;42.622;23.328;2022-12-19T12:28:05;21.23;;;17.50;;
6197;SDS011;3132;42.622;23.328;2022-12-19T12:30:50;21.17;;;17.63;;
6197;SDS011;3132;42.622;23.328;2022-12-19T12:33:34;22.40;;;17.53;;
6197;SDS011;3132;42.622;23.328;2022-12-19T12:36:04;23.70;;;18.07;;
6197;SDS011;3132;42.622;23.328;2022-12-19T12:38:55;19.77;;;17.13;;
6197;SDS011;3132;42.622;23.328;2022-12-19T12:44:33;21.73;;;17.13;;
6197;SDS011;3132;42.622;23.328;2022-12-19T12:52:17;19.00;;;15.93;;
6197;SDS011;3132;42.622;23.328;2022-12-19T12:54:46;20.10;;;16.70;;
6197;SDS011;3132;42.622;23.328;2022-12-19T12:57:15;21.20;;;16.80;;
6197;SDS011;3132;42.622;23.328;2022-12-19T12:59:43;16.77;;;15.13;;
6197;SDS011;3132;42.622;23.328;2022-12-19T13:02:13;17.07;;;15.50;;
6197;SDS011;3132;42.622;23.328;2022-12-19T13:04:55;15.20;;;13.70;;
6197;SDS011;3132;42.622;23.328;2022-12-19T13:10:13;15.37;;;14.00;;
6197;SDS011;3132;42.622;23.328;2022-12-19T13:12:53;16.30;;;14.60;;
6197;SDS011;3132;42.622;23.328;2022-12-19T13:39:40;16.70;;;15.00;;
6197;SDS011;3132;42.622;23.328;2022-12-19T13:44:52;17.17;;;15.63;;
6197;SDS011;3132;42.622;23.328;2022-12-19T13:47:22;17.10;;;15.43;;
6197;SDS011;3132;42.622;23.328;2022-12-19T13:49:48;16.43;;;14.83;;
6197;SDS011;3132;42.622;23.328;2022-12-19T13:52:16;17.00;;;15.43;;
6197;SDS011;3132;42.622;23.328;2022-12-19T13:54:46;17.27;;;15.57;;
6197;SDS011;3132;42.622;23.328;2022-12-19T13:57:24;18.60;;;16.73;;
6197;SDS011;3132;42.622;23.328;2022-12-19T13:59:52;17.80;;;15.70;;
6197;SDS011;3132;42.622;23.328;2022-12-19T14:02:29;16.87;;;15.20;;
6197;SDS011;3132;42.622;23.328;2022-12-19T14:04:57;18.03;;;16.43;;
6197;SDS011;3132;42.622;23.328;2022-12-19T14:07:39;19.00;;;16.93;;
6197;SDS011;3132;42.622;23.328;2022-12-19T14:10:07;17.03;;;15.40;;
6197;SDS011;3132;42.622;23.328;2022-12-19T14:12:41;15.70;;;14.30;;
6197;SDS011;3132;42.622;23.328;2022-12-19T14:15:33;18.10;;;16.07;;
6197;SDS011;3132;42.622;23.328;2022-12-19T14:18:01;18.43;;;16.57;;
6197;SDS011;3132;42.622;23.328;2022-12-19T14:20:39;19.30;;;15.90;;
6197;SDS011;3132;42.622;23.328;2022-12-19T14:23:05;19.07;;;17.10;;
6197;SDS011;3132;42.622;23.328;2022-12-19T14:25:49;21.30;;;17.57;;
6197;SDS011;3132;42.622;23.328;2022-12-19T14:28:18;18.83;;;16.73;;
6197;SDS011;3132;42.622;23.328;2022-12-19T14:30:50;20.07;;;16.50;;
6197;SDS011;3132;42.622;23.328;2022-12-19T14:33:27;17.73;;;15.83;;
6197;SDS011;3132;42.622;23.328;2022-12-19T14:35:57;19.07;;;17.07;;
6197;SDS011;3132;42.622;23.328;2022-12-19T14:38:23;17.97;;;16.17;;
6197;SDS011;3132;42.622;23.328;2022-12-19T14:40:52;19.73;;;16.63;;
6197;SDS011;3132;42.622;23.328;2022-12-19T14:43:22;18.07;;;16.03;;
6197;SDS011;3132;42.622;23.328;2022-12-19T14:46:10;16.77;;;14.90;;
6197;SDS011;3132;42.622;23.328;2022-12-19T14:48:59;17.77;;;15.93;;
6197;SDS011;3132;42.622;23.328;2022-12-19T14:51:27;19.70;;;17.57;;
6197;SDS011;3132;42.622;23.328;2022-12-19T14:59:34;16.93;;;15.03;;
6197;SDS011;3132;42.622;23.328;2022-12-19T15:04:32;18.67;;;16.50;;
6197;SDS011;3132;42.622;23.328;2022-12-19T15:07:02;17.20;;;15.63;;
6197;SDS011;3132;42.622;23.328;2022-12-19T15:09:36;17.87;;;15.77;;
6197;SDS011;3132;42.622;23.328;2022-12-19T15:12:14;17.73;;;15.80;;
6197;SDS011;3132;42.622;23.328;2022-12-19T15:15:15;16.80;;;15.10;;
6197;SDS011;3132;42.622;23.328;2022-12-19T15:17:45;17.47;;;15.73;;
6197;SDS011;3132;42.622;23.328;2022-12-19T15:20:12;17.87;;;16.10;;
6197;SDS011;3132;42.622;23.328;2022-12-19T15:22:37;19.00;;;17.10;;
6197;SDS011;3132;42.622;23.328;2022-12-19T15:25:03;17.03;;;15.30;;
6197;SDS011;3132;42.622;23.328;2022-12-19T15:27:28;17.47;;;15.60;;
6197;SDS011;3132;42.622;23.328;2022-12-19T15:29:55;17.20;;;15.50;;
6197;SDS011;3132;42.622;23.328;2022-12-19T15:32:21;15.87;;;14.47;;
6197;SDS011;3132;42.622;23.328;2022-12-19T15:34:47;21.80;;;19.87;;
6197;SDS011;3132;42.622;23.328;2022-12-19T15:37:13;16.77;;;15.07;;
6197;SDS011;3132;42.622;23.328;2022-12-19T15:39:40;18.50;;;16.70;;
6197;SDS011;3132;42.622;23.328;2022-12-19T15:42:11;17.63;;;15.53;;
6197;SDS011;3132;42.622;23.328;2022-12-19T15:44:42;17.30;;;15.67;;
6197;SDS011;3132;42.622;23.328;2022-12-19T15:47:16;16.33;;;14.90;;
6197;SDS011;3132;42.622;23.328;2022-12-19T15:49:45;17.67;;;15.80;;
6197;SDS011;3132;42.622;23.328;2022-12-19T15:52:15;19.37;;;16.10;;
6197;SDS011;3132;42.622;23.328;2022-12-19T15:54:42;16.90;;;15.20;;
6197;SDS011;3132;42.622;23.328;2022-12-19T15:57:12;19.70;;;16.83;;
6197;SDS011;3132;42.622;23.328;2022-12-19T15:59:55;16.90;;;15.23;;
6197;SDS011;3132;42.622;23.328;2022-12-19T16:02:27;21.37;;;18.27;;
6197;SDS011;3132;42.622;23.328;2022-12-19T16:04:55;19.67;;;16.93;;
6197;SDS011;3132;42.622;23.328;2022-12-19T16:07:21;19.60;;;17.53;;
6197;SDS011;3132;42.622;23.328;2022-12-19T16:09:48;17.30;;;15.53;;
6197;SDS011;3132;42.622;23.328;2022-12-19T16:12:30;20.13;;;16.60;;
6197;SDS011;3132;42.622;23.328;2022-12-19T16:15:01;20.87;;;18.60;;
6197;SDS011;3132;42.622;23.328;2022-12-19T16:17:28;20.23;;;17.10;;
6197;SDS011;3132;42.622;23.328;2022-12-19T16:19:56;20.00;;;17.87;;
6197;SDS011;3132;42.622;23.328;2022-12-19T16:22:25;17.60;;;15.27;;
6197;SDS011;3132;42.622;23.328;2022-12-19T16:24:52;20.70;;;15.63;;
6197;SDS011;3132;42.622;23.328;2022-12-19T16:27:22;17.07;;;15.43;;
6197;SDS011;3132;42.622;23.328;2022-12-19T16:29:52;17.37;;;15.57;;
6197;SDS011;3132;42.622;23.328;2022-12-19T16:32:19;17.37;;;15.60;;
6197;SDS011;3132;42.622;23.328;2022-12-19T16:34:48;17.60;;;15.80;;
6197;SDS011;3132;42.622;23.328;2022-12-19T16:37:13;17.37;;;15.37;;
6197;SDS011;3132;42.622;23.328;2022-12-19T16:39:39;18.33;;;16.47;;
6197;SDS011;3132;42.622;23.328;2022-12-19T16:42:04;17.93;;;16.33;;
6197;SDS011;3132;42.622;23.328;2022-12-19T16:44:40;18.83;;;15.63;;
6197;SDS011;3132;42.622;23.328;2022-12-19T16:47:15;19.10;;;14.70;;
6197;SDS011;3132;42.622;23.328;2022-12-19T16:49:42;16.43;;;14.83;;
6197;SDS011;3132;42.622;23.328;2022-12-19T16:52:08;18.87;;;16.50;;
6197;SDS011;3132;42.622;23.328;2022-12-19T16:54:34;16.80;;;15.00;;
6197;SDS011;3132;42.622;23.328;2022-12-19T16:56:59;21.83;;;15.10;;
6197;SDS011;3132;42.622;23.328;2022-12-19T16:59:31;18.00;;;16.27;;
6197;SDS011;3132;42.622;23.328;2022-12-19T17:01:59;17.13;;;15.53;;
6197;SDS011;3132;42.622;23.328;2022-12-19T17:04:26;16.90;;;15.30;;
6197;SDS011;3132;42.622;23.328;2022-12-19T17:06:53;18.37;;;16.47;;
6197;SDS011;3132;42.622;23.328;2022-12-19T17:09:20;17.93;;;15.43;;
6197;SDS011;3132;42.622;23.328;2022-12-19T17:11:49;20.43;;;17.07;;
6197;SDS011;3132;42.622;23.328;2022-12-19T17:14:18;22.50;;;17.47;;
6197;SDS011;3132;42.622;23.328;2022-12-19T17:16:46;18.47;;;16.53;;
6197;SDS011;3132;42.622;23.328;2022-12-19T17:19:19;17.87;;;15.97;;
6197;SDS011;3132;42.622;23.328;2022-12-19T17:21:47;21.20;;;16.60;;